Time;durP1;ratioP1;P1;durP2;ratioP2;P2;SDS_P1;SDS_P2;PMS_P1;PMS_P2;Temp;Humidity;BMP_temperature;BMP_pressure;BME280_temperature;BME280_humidity;BME280_pressure;Samples;Min_cycle;Max_cycle;Signal;HPM_P1;HPM_P2
2022/11/19 00:01:20;;;;;;;17.70;13.57;;;5.60;99.90;;;;;;5043090;28;20024;-40
2022/11/19 00:03:47;;;;;;;19.02;14.07;;;5.60;99.90;;;;;;5042518;28;20043;-39
2022/11/19 00:06:18;;;;;;;23.17;14.65;;;5.60;99.90;;;;;;5043232;28;20032;-40
2022/11/19 00:08:44;;;;;;;19.38;14.38;;;5.60;99.90;;;;;;5042199;28;20455;-40
2022/11/19 00:11:12;;;;;;;20.58;14.80;;;5.60;99.90;;;;;;5043210;28;20043;-41
2022/11/19 00:13:39;;;;;;;20.83;14.38;;;5.60;99.90;;;;;;5040321;28;20021;-41
2022/11/19 00:16:13;;;;;;;22.67;15.38;;;5.50;99.90;;;;;;5042900;28;20106;-41
2022/11/19 00:18:39;;;;;;;20.20;15.65;;;5.50;99.90;;;;;;5042454;28;20449;-40
2022/11/19 00:21:10;;;;;;;22.02;16.55;;;5.50;99.90;;;;;;5042234;28;20025;-39
2022/11/19 00:23:36;;;;;;;21.65;16.23;;;5.50;99.90;;;;;;5040888;28;20037;-38
2022/11/19 00:26:10;;;;;;;20.17;15.20;;;5.40;99.90;;;;;;5042193;28;20198;-38
2022/11/19 00:28:36;;;;;;;22.27;15.68;;;5.40;99.90;;;;;;5041486;28;20055;-38
2022/11/19 00:31:04;;;;;;;22.75;15.88;;;5.40;99.90;;;;;;5041264;28;20107;-39
2022/11/19 00:33:30;;;;;;;22.23;15.35;;;5.40;99.90;;;;;;5042178;28;20481;-41
2022/11/19 00:35:57;;;;;;;22.30;16.05;;;5.40;99.90;;;;;;5042497;28;20036;-41
2022/11/19 00:38:23;;;;;;;23.75;16.02;;;5.30;99.90;;;;;;5042011;28;20082;-39
2022/11/19 00:40:48;;;;;;;24.25;16.63;;;5.30;99.90;;;;;;5042440;28;20025;-41
2022/11/19 00:45:58;;;;;;;19.77;15.23;;;5.30;99.90;;;;;;5041984;28;20094;-40
2022/11/19 00:48:23;;;;;;;21.60;15.65;;;5.30;99.90;;;;;;5041482;28;20423;-40
2022/11/19 00:50:49;;;;;;;20.85;15.63;;;5.30;99.90;;;;;;5041899;28;20419;-41
2022/11/19 00:53:14;;;;;;;21.63;16.40;;;5.30;99.90;;;;;;5042670;28;20563;-39
2022/11/19 00:55:40;;;;;;;22.85;16.85;;;5.30;99.90;;;;;;5041909;28;20146;-41
2022/11/19 00:58:05;;;;;;;22.85;15.40;;;5.30;99.90;;;;;;5042922;28;20495;-40
2022/11/19 01:00:31;;;;;;;23.55;15.52;;;5.30;99.90;;;;;;5041996;28;20025;-41
2022/11/19 01:02:57;;;;;;;21.13;16.42;;;5.20;99.90;;;;;;5041523;28;20036;-39
2022/11/19 01:05:22;;;;;;;21.00;16.60;;;5.20;99.90;;;;;;5041850;28;20029;-40
2022/11/19 01:07:48;;;;;;;22.88;16.38;;;5.20;99.90;;;;;;5041755;28;20032;-39
2022/11/19 01:10:14;;;;;;;21.63;15.68;;;5.20;99.90;;;;;;5041047;28;20025;-40
2022/11/19 01:13:33;;;;;;;20.83;15.95;;;5.20;99.90;;;;;;5041158;28;20028;-40
2022/11/19 01:15:25;;;;;;;23.35;16.90;;;5.20;99.90;;;;;;5040654;28;20587;-39
2022/11/19 01:17:50;;;;;;;21.60;16.13;;;5.20;99.90;;;;;;5041257;28;20032;-39
2022/11/19 01:20:16;;;;;;;21.80;15.88;;;5.10;99.90;;;;;;5041611;28;20021;-40
2022/11/19 01:22:41;;;;;;;22.25;16.25;;;5.10;99.90;;;;;;5041258;28;20025;-41
2022/11/19 01:25:08;;;;;;;22.63;16.55;;;5.10;99.90;;;;;;5039591;28;20021;-37
2022/11/19 01:27:33;;;;;;;22.02;16.55;;;5.10;99.90;;;;;;5031079;28;20112;-40
2022/11/19 01:29:59;;;;;;;23.17;16.70;;;5.10;99.90;;;;;;5030981;28;20503;-39
2022/11/19 01:32:24;;;;;;;23.65;17.35;;;5.10;99.90;;;;;;5041506;28;20539;-40
2022/11/19 01:34:51;;;;;;;22.38;16.73;;;5.10;99.90;;;;;;5041334;28;20041;-40
2022/11/19 01:37:17;;;;;;;22.17;16.23;;;5.10;99.90;;;;;;5044919;28;20032;-41
2022/11/19 01:39:42;;;;;;;23.17;16.67;;;5.10;99.90;;;;;;5044759;28;20114;-39
2022/11/19 01:42:48;;;;;;;23.63;17.73;;;5.00;99.90;;;;;;5045109;28;20079;-40
2022/11/19 01:45:33;;;;;;;22.88;17.17;;;5.00;99.90;;;;;;5044559;28;20439;-40
2022/11/19 01:48:13;;;;;;;25.55;17.73;;;5.00;99.90;;;;;;5045605;28;20029;-40
2022/11/19 01:51:02;;;;;;;22.80;16.88;;;4.90;99.90;;;;;;5044615;28;20522;-40
2022/11/19 01:53:33;;;;;;;25.15;19.83;;;4.90;99.90;;;;;;5045096;28;20036;-40
2022/11/19 01:56:02;;;;;;;26.15;19.52;;;4.90;99.90;;;;;;5045099;28;20029;-41
2022/11/19 01:58:31;;;;;;;24.48;18.25;;;4.80;99.90;;;;;;5044156;28;20847;-40
2022/11/19 02:00:57;;;;;;;25.45;19.02;;;4.80;99.90;;;;;;5045190;28;20032;-41
2022/11/19 02:03:24;;;;;;;26.02;18.80;;;4.80;99.90;;;;;;5045087;28;20037;-39
2022/11/19 02:05:53;;;;;;;28.38;19.27;;;4.80;99.90;;;;;;5043388;28;20692;-40
2022/11/19 02:08:38;;;;;;;26.30;19.00;;;4.80;99.90;;;;;;5044603;28;20055;-39
2022/11/19 02:11:38;;;;;;;27.30;19.52;;;4.80;99.90;;;;;;5045465;28;20139;-40
2022/11/19 02:14:15;;;;;;;27.75;18.83;;;4.70;99.90;;;;;;5045329;28;20025;-40
2022/11/19 02:17:14;;;;;;;27.85;18.70;;;4.70;99.90;;;;;;5044048;28;20037;-40
2022/11/19 02:20:05;;;;;;;26.83;19.83;;;4.70;99.90;;;;;;5044085;28;20029;-40
2022/11/19 02:23:03;;;;;;;30.23;20.02;;;4.70;99.90;;;;;;5044087;28;20029;-40
2022/11/19 02:26:06;;;;;;;29.23;20.83;;;4.70;99.90;;;;;;5035557;28;20047;-40
2022/11/19 02:28:47;;;;;;;27.63;20.60;;;4.60;99.90;;;;;;5034508;28;20029;-37
2022/11/19 02:31:35;;;;;;;28.60;20.77;;;4.60;99.90;;;;;;5044703;28;20123;-40
2022/11/19 02:34:11;;;;;;;28.77;21.08;;;4.50;99.90;;;;;;5034437;28;20064;-40
2022/11/19 02:36:53;;;;;;;29.05;21.35;;;4.50;99.90;;;;;;5043787;28;20071;-37
2022/11/19 02:39:29;;;;;;;25.90;19.48;;;4.50;99.90;;;;;;5035320;28;20055;-36
2022/11/19 02:42:20;;;;;;;28.92;22.33;;;4.50;99.90;;;;;;5043331;28;20040;-41
2022/11/19 02:45:03;;;;;;;29.02;21.70;;;4.50;99.90;;;;;;5043429;28;20805;-39
2022/11/19 02:47:38;;;;;;;28.80;20.88;;;4.50;99.90;;;;;;5042910;28;20059;-40
2022/11/19 02:50:07;;;;;;;36.13;24.08;;;4.50;99.90;;;;;;5043995;28;20021;-38
2022/11/19 02:52:37;;;;;;;30.23;22.02;;;4.50;99.90;;;;;;5043322;28;20025;-39
2022/11/19 02:55:03;;;;;;;31.08;22.60;;;4.50;99.90;;;;;;5043524;28;20025;-38
2022/11/19 02:57:28;;;;;;;32.03;22.73;;;4.50;99.90;;;;;;5043803;28;20082;-38
2022/11/19 03:05:58;;;;;;;30.13;22.75;;;4.40;99.90;;;;;;5043635;28;20056;-41
2022/11/19 03:08:24;;;;;;;27.90;21.60;;;4.40;99.90;;;;;;5043031;28;20555;-41
2022/11/19 03:11:04;;;;;;;31.85;23.65;;;4.30;99.90;;;;;;5043095;28;20044;-40
2022/11/19 03:16:40;;;;;;;32.55;23.48;;;4.30;99.90;;;;;;5043098;28;20067;-40
2022/11/19 03:19:13;;;;;;;33.00;24.02;;;4.20;99.90;;;;;;5043064;28;20578;-38
2022/11/19 03:21:59;;;;;;;34.20;24.13;;;4.20;99.90;;;;;;5043340;28;20829;-40
2022/11/19 03:24:36;;;;;;;32.85;24.45;;;4.10;99.90;;;;;;5043198;28;20028;-38
2022/11/19 03:27:37;;;;;;;34.53;24.70;;;4.10;99.90;;;;;;5023351;28;20064;-37
2022/11/19 03:30:04;;;;;;;33.38;24.58;;;4.10;99.90;;;;;;5041726;28;20495;-40
2022/11/19 03:32:45;;;;;;;33.72;24.80;;;4.00;99.90;;;;;;5043393;28;20047;-39
2022/11/19 03:35:19;;;;;;;37.95;26.63;;;4.00;99.90;;;;;;5043208;28;20053;-41
2022/11/19 03:37:49;;;;;;;34.00;24.80;;;3.90;99.90;;;;;;5042879;28;20040;-41
2022/11/19 03:40:17;;;;;;;37.83;26.13;;;3.90;99.90;;;;;;5042928;28;20028;-38
2022/11/19 03:42:46;;;;;;;32.95;23.83;;;3.90;99.90;;;;;;5043766;28;20028;-40
2022/11/19 03:45:16;;;;;;;35.22;26.40;;;3.80;99.90;;;;;;5042985;28;20032;-39
2022/11/19 03:47:44;;;;;;;34.30;24.52;;;3.80;99.90;;;;;;5022500;28;20480;-39
2022/11/19 03:50:22;;;;;;;36.70;26.10;;;3.80;99.90;;;;;;5037325;28;20025;-39
2022/11/19 03:52:48;;;;;;;33.47;24.95;;;3.80;99.90;;;;;;5042750;28;20037;-39
2022/11/19 03:55:15;;;;;;;35.30;24.67;;;3.80;99.90;;;;;;5043055;28;20036;-38
2022/11/19 03:57:41;;;;;;;32.95;24.52;;;3.80;99.90;;;;;;5041897;28;20051;-39
2022/11/19 04:00:07;;;;;;;33.60;24.30;;;3.80;99.90;;;;;;5042084;28;20752;-37
2022/11/19 04:02:33;;;;;;;33.42;24.75;;;3.80;99.90;;;;;;5042469;28;20119;-39
2022/11/19 04:04:58;;;;;;;36.03;25.42;;;3.90;99.90;;;;;;5042334;28;20039;-36
2022/11/19 04:07:30;;;;;;;37.75;26.35;;;3.80;99.90;;;;;;5042254;28;20064;-38
2022/11/19 04:09:55;;;;;;;35.88;25.80;;;3.80;99.90;;;;;;5042659;28;20029;-41
2022/11/19 04:12:23;;;;;;;34.38;24.27;;;3.70;99.90;;;;;;5042442;28;20086;-40
2022/11/19 04:14:51;;;;;;;38.00;26.92;;;3.70;99.90;;;;;;5042440;28;20123;-41
2022/11/19 04:17:18;;;;;;;34.42;24.80;;;3.60;99.90;;;;;;5043003;28;20037;-40
2022/11/19 04:19:47;;;;;;;34.15;24.58;;;3.60;99.90;;;;;;5041680;28;20107;-39
2022/11/19 04:22:12;;;;;;;33.22;23.85;;;3.50;99.90;;;;;;5042300;28;20610;-36
2022/11/19 04:24:38;;;;;;;35.78;25.67;;;3.50;99.90;;;;;;5041890;28;20025;-39
2022/11/19 04:27:03;;;;;;;35.72;24.75;;;3.50;99.90;;;;;;5042083;28;20057;-40
2022/11/19 04:29:29;;;;;;;37.55;25.95;;;3.50;99.90;;;;;;5041690;28;20041;-41
2022/11/19 04:31:54;;;;;;;36.80;25.80;;;3.50;99.90;;;;;;5041839;28;20064;-41
2022/11/19 04:34:20;;;;;;;35.97;24.83;;;3.50;99.90;;;;;;5041772;28;20049;-40
2022/11/19 04:36:46;;;;;;;36.67;25.70;;;3.60;99.90;;;;;;5041639;28;20044;-38
2022/11/19 04:39:11;;;;;;;37.97;26.58;;;3.60;99.90;;;;;;5042189;28;20024;-39
2022/11/19 04:41:38;;;;;;;35.35;25.73;;;3.50;99.90;;;;;;5041139;28;20067;-38
2022/11/19 04:44:04;;;;;;;34.25;24.42;;;3.50;99.90;;;;;;5041674;28;20051;-41
2022/11/19 04:46:30;;;;;;;36.17;25.50;;;3.50;99.90;;;;;;5041710;28;20053;-40
2022/11/19 04:48:56;;;;;;;35.25;24.95;;;3.60;99.90;;;;;;5041776;28;20435;-40
2022/11/19 04:51:22;;;;;;;36.72;25.75;;;3.60;99.90;;;;;;5041587;28;20028;-40
2022/11/19 04:53:48;;;;;;;35.20;24.58;;;3.60;99.90;;;;;;5041918;28;20389;-41
2022/11/19 04:56:13;;;;;;;36.83;25.05;;;3.60;99.90;;;;;;5041384;28;20021;-42
2022/11/19 04:58:39;;;;;;;37.20;25.92;;;3.60;99.90;;;;;;5041505;28;20029;-41
2022/11/19 05:01:04;;;;;;;37.80;27.45;;;3.60;99.90;;;;;;5041435;28;20449;-41
2022/11/19 05:03:30;;;;;;;36.20;25.98;;;3.60;99.90;;;;;;5041946;28;20019;-40
2022/11/19 05:05:56;;;;;;;39.45;27.15;;;3.60;99.90;;;;;;5042475;28;20485;-38
2022/11/19 05:08:21;;;;;;;35.83;26.25;;;3.60;99.90;;;;;;5040692;28;20025;-40
2022/11/19 05:10:47;;;;;;;38.78;26.58;;;3.50;99.90;;;;;;5043739;28;20025;-39
2022/11/19 05:13:12;;;;;;;36.85;25.30;;;3.50;99.90;;;;;;5046288;28;20827;-38
2022/11/19 05:15:38;;;;;;;39.42;27.08;;;3.50;99.90;;;;;;5045440;28;20036;-39
2022/11/19 05:18:04;;;;;;;38.72;27.30;;;3.50;99.90;;;;;;5045816;28;20033;-39
2022/11/19 05:20:29;;;;;;;36.33;25.85;;;3.40;99.90;;;;;;5045034;28;20104;-40
2022/11/19 05:22:55;;;;;;;36.20;26.02;;;3.40;99.90;;;;;;5045339;28;20480;-39
2022/11/19 05:25:20;;;;;;;37.55;24.98;;;3.40;99.90;;;;;;5045476;28;20032;-41
2022/11/19 05:27:46;;;;;;;39.75;27.25;;;3.40;99.90;;;;;;5045377;28;20531;-41
2022/11/19 05:30:12;;;;;;;36.90;25.80;;;3.40;99.90;;;;;;5045491;28;20025;-40
2022/11/19 05:32:38;;;;;;;39.17;27.25;;;3.40;99.90;;;;;;5044395;28;20059;-41
2022/11/19 05:35:04;;;;;;;38.75;27.52;;;3.40;99.90;;;;;;5045636;28;20135;-39
2022/11/19 05:37:30;;;;;;;37.15;26.35;;;3.30;99.90;;;;;;5044959;28;20496;-40
2022/11/19 05:39:55;;;;;;;38.10;25.95;;;3.30;99.90;;;;;;5045219;28;20503;-40
2022/11/19 05:42:21;;;;;;;36.63;25.50;;;3.30;99.90;;;;;;5045441;28;20035;-39
2022/11/19 05:44:47;;;;;;;37.33;25.92;;;3.30;99.90;;;;;;5044799;28;20031;-41
2022/11/19 05:47:15;;;;;;;37.05;25.98;;;3.30;99.90;;;;;;5045988;28;20127;-41
2022/11/19 05:49:40;;;;;;;37.67;26.10;;;3.30;99.90;;;;;;5044586;28;20149;-41
2022/11/19 05:52:06;;;;;;;38.63;26.27;;;3.30;99.90;;;;;;5045594;28;20086;-39
2022/11/19 05:54:31;;;;;;;37.05;26.45;;;3.30;99.90;;;;;;5044984;28;20644;-36
2022/11/19 05:56:57;;;;;;;37.33;25.92;;;3.20;99.90;;;;;;5045295;28;20719;-38
2022/11/19 05:59:22;;;;;;;36.80;25.48;;;3.20;99.90;;;;;;5044669;28;20029;-38
2022/11/19 06:01:48;;;;;;;35.88;25.20;;;3.20;99.90;;;;;;5045139;28;20632;-40
2022/11/19 06:04:13;;;;;;;36.97;24.00;;;3.10;99.90;;;;;;5045505;28;20573;-40
2022/11/19 06:06:39;;;;;;;38.45;27.40;;;3.10;99.90;;;;;;5044401;28;20559;-41
2022/11/19 06:09:04;;;;;;;37.30;24.92;;;3.10;99.90;;;;;;5045474;28;20480;-41
2022/11/19 06:14:21;;;;;;;37.17;25.02;;;3.10;99.90;;;;;;5044977;28;20388;-40
2022/11/19 06:16:51;;;;;;;34.03;23.57;;;3.10;99.90;;;;;;5045417;28;20037;-40
2022/11/19 06:19:17;;;;;;;34.33;22.98;;;3.00;99.90;;;;;;5044479;28;20029;-39
2022/11/19 06:21:47;;;;;;;37.25;26.20;;;3.00;99.90;;;;;;5043184;28;20861;-41
2022/11/19 06:24:13;;;;;;;34.17;23.45;;;2.90;99.90;;;;;;5045536;28;20031;-41
2022/11/19 06:26:38;;;;;;;32.47;22.83;;;2.90;99.90;;;;;;5044003;28;20059;-40
2022/11/19 06:29:05;;;;;;;35.30;24.55;;;2.90;99.90;;;;;;5044627;28;20126;-41
2022/11/19 06:31:31;;;;;;;36.25;24.90;;;2.90;99.90;;;;;;5044569;28;20712;-42
2022/11/19 06:33:57;;;;;;;36.35;24.25;;;2.90;99.90;;;;;;5044387;28;20453;-39
2022/11/19 06:36:22;;;;;;;34.40;23.13;;;2.90;99.90;;;;;;5044340;28;20116;-37
2022/11/19 06:38:48;;;;;;;34.38;22.50;;;2.90;99.90;;;;;;5044913;28;20036;-40
2022/11/19 06:41:14;;;;;;;31.33;22.35;;;2.90;99.90;;;;;;5044236;28;20048;-41
2022/11/19 06:43:39;;;;;;;35.42;24.10;;;2.90;99.90;;;;;;5043780;28;20029;-39
2022/11/19 06:46:05;;;;;;;37.60;25.52;;;2.90;99.90;;;;;;5044735;28;20524;-40
2022/11/19 06:48:31;;;;;;;34.75;23.75;;;2.90;99.90;;;;;;5043022;28;20660;-40
2022/11/19 06:50:56;;;;;;;33.47;24.17;;;2.90;99.90;;;;;;5043817;28;20013;-40
2022/11/19 06:53:22;;;;;;;35.95;24.05;;;2.80;99.90;;;;;;5043889;28;20103;-40
2022/11/19 06:55:54;;;;;;;37.60;24.38;;;2.80;99.90;;;;;;5043463;28;20105;-40
2022/11/19 06:58:19;;;;;;;34.55;24.60;;;2.80;99.90;;;;;;5043933;28;20037;-40
2022/11/19 07:00:45;;;;;;;35.20;24.13;;;2.80;99.90;;;;;;5043396;28;20029;-40
2022/11/19 07:03:11;;;;;;;35.75;23.38;;;2.80;99.90;;;;;;5044395;28;20037;-38
2022/11/19 07:05:37;;;;;;;39.50;25.63;;;2.70;99.90;;;;;;5043339;28;20334;-39
2022/11/19 07:08:03;;;;;;;41.13;26.08;;;2.70;99.90;;;;;;5032803;28;20029;-37
2022/11/19 07:10:29;;;;;;;37.80;24.88;;;2.70;99.90;;;;;;5042722;28;20048;-39
2022/11/19 07:12:54;;;;;;;36.00;23.90;;;2.70;99.90;;;;;;5043622;28;20028;-40
2022/11/19 07:15:22;;;;;;;34.95;23.40;;;2.70;99.90;;;;;;5043109;28;20108;-39
2022/11/19 07:17:48;;;;;;;32.10;21.65;;;2.60;99.90;;;;;;5041397;28;20493;-40
2022/11/19 07:20:13;;;;;;;36.20;24.65;;;2.60;99.90;;;;;;5043859;28;20032;-40
2022/11/19 07:22:41;;;;;;;35.38;23.52;;;2.60;99.90;;;;;;5042242;28;20037;-40
2022/11/19 07:25:07;;;;;;;35.10;23.77;;;2.60;99.90;;;;;;5043779;28;20033;-39
2022/11/19 07:27:32;;;;;;;38.40;25.23;;;2.60;99.90;;;;;;5042890;28;20039;-39
2022/11/19 07:29:58;;;;;;;35.47;23.70;;;2.60;99.90;;;;;;5043199;28;20033;-39
2022/11/19 07:32:23;;;;;;;36.72;24.02;;;2.60;99.90;;;;;;5039466;28;20033;-40
2022/11/19 07:34:49;;;;;;;37.25;24.58;;;2.60;99.90;;;;;;5041301;28;20111;-39
2022/11/19 07:37:14;;;;;;;37.95;25.48;;;2.60;99.90;;;;;;5042157;28;20033;-39
2022/11/19 07:39:41;;;;;;;36.30;24.05;;;2.50;99.90;;;;;;5042600;28;20045;-37
2022/11/19 07:44:52;;;;;;;35.53;24.20;;;2.50;99.90;;;;;;5035209;28;20633;-37
2022/11/19 07:47:17;;;;;;;35.83;23.35;;;2.50;99.90;;;;;;5041880;28;20025;-39
2022/11/19 07:49:43;;;;;;;35.00;22.58;;;2.50;99.90;;;;;;5042879;28;20532;-40
2022/11/19 07:52:08;;;;;;;38.00;24.90;;;2.50;99.90;;;;;;5040725;28;20036;-40
2022/11/19 07:54:34;;;;;;;39.85;23.95;;;2.50;99.90;;;;;;5041866;28;20033;-40
2022/11/19 07:56:59;;;;;;;36.53;24.42;;;2.50;99.90;;;;;;5042200;28;20045;-39
2022/11/19 07:59:25;;;;;;;38.85;25.15;;;2.50;99.90;;;;;;5041948;28;20021;-41
2022/11/19 08:01:51;;;;;;;35.53;23.35;;;2.50;99.90;;;;;;5041891;28;20043;-39
2022/11/19 08:04:17;;;;;;;35.70;23.33;;;2.40;99.90;;;;;;5041503;28;20021;-38
2022/11/19 08:06:42;;;;;;;35.95;22.73;;;2.40;99.90;;;;;;5039686;28;20044;-39
2022/11/19 08:09:08;;;;;;;35.28;23.75;;;2.30;99.90;;;;;;5042048;28;20021;-39
2022/11/19 08:11:34;;;;;;;36.35;23.08;;;2.30;99.90;;;;;;5041233;28;20029;-40
2022/11/19 08:14:00;;;;;;;36.88;24.30;;;2.30;99.90;;;;;;5041946;28;20039;-41
2022/11/19 08:19:13;;;;;;;32.45;22.35;;;2.20;99.90;;;;;;5042077;28;20693;-37
2022/11/19 08:21:41;;;;;;;33.90;22.60;;;2.20;99.90;;;;;;5041727;28;20542;-40
2022/11/19 08:24:11;;;;;;;40.03;25.08;;;2.20;99.90;;;;;;5042280;28;20448;-39
2022/11/19 08:26:37;;;;;;;38.58;24.83;;;2.20;99.90;;;;;;5040003;28;20111;-38
2022/11/19 08:29:04;;;;;;;36.97;25.27;;;2.20;99.90;;;;;;5042511;28;20472;-40
2022/11/19 08:31:30;;;;;;;34.13;22.45;;;2.10;99.90;;;;;;5041795;28;20112;-39
2022/11/19 08:33:55;;;;;;;32.45;22.63;;;2.10;99.90;;;;;;5041759;28;20882;-40
2022/11/19 08:36:21;;;;;;;30.05;21.10;;;2.10;99.90;;;;;;5037245;28;20088;-40
2022/11/19 08:38:47;;;;;;;34.28;22.48;;;2.10;99.90;;;;;;5027314;28;20017;-39
2022/11/19 08:44:04;;;;;;;29.40;19.65;;;2.00;99.90;;;;;;5031117;28;20040;-39
2022/11/19 08:46:30;;;;;;;30.35;20.40;;;1.90;99.90;;;;;;5039999;28;20028;-38
2022/11/19 08:48:56;;;;;;;32.63;21.33;;;1.80;99.90;;;;;;5041810;28;20024;-37
2022/11/19 08:51:21;;;;;;;32.00;21.90;;;1.80;99.90;;;;;;5040289;28;20086;-38
2022/11/19 08:53:49;;;;;;;32.08;20.92;;;1.80;99.90;;;;;;5041568;28;20608;-38
2022/11/19 08:56:15;;;;;;;30.50;20.10;;;1.80;99.90;;;;;;5042512;28;20040;-37
2022/11/19 08:58:40;;;;;;;32.58;20.90;;;1.70;99.90;;;;;;5042483;28;20075;-40
2022/11/19 09:01:11;;;;;;;28.45;19.75;;;1.70;99.90;;;;;;5040590;28;20025;-38
2022/11/19 09:03:37;;;;;;;27.42;19.25;;;1.60;99.90;;;;;;5040413;28;20032;-40
2022/11/19 09:06:02;;;;;;;26.60;18.38;;;1.60;99.90;;;;;;5041673;28;20079;-36
2022/11/19 09:08:29;;;;;;;27.10;18.42;;;1.60;99.90;;;;;;5041239;28;20782;-39
2022/11/19 09:10:54;;;;;;;27.67;20.20;;;1.60;99.90;;;;;;5041170;28;20032;-37
2022/11/19 09:13:20;;;;;;;27.63;18.95;;;1.60;99.90;;;;;;5041590;28;20022;-40
2022/11/19 09:15:50;;;;;;;27.70;18.40;;;1.50;99.90;;;;;;5041302;28;20021;-39
2022/11/19 09:18:16;;;;;;;27.23;18.88;;;1.50;99.90;;;;;;5040234;28;20037;-41
2022/11/19 09:20:42;;;;;;;26.38;18.85;;;1.60;99.90;;;;;;5041037;28;20357;-40
2022/11/19 09:23:08;;;;;;;29.73;18.83;;;1.60;99.90;;;;;;5041390;28;20095;-41
2022/11/19 09:25:33;;;;;;;28.50;18.55;;;1.60;99.90;;;;;;5041170;28;20029;-41
2022/11/19 09:27:59;;;;;;;24.60;17.25;;;1.60;99.90;;;;;;5041827;28;20040;-39
2022/11/19 09:30:25;;;;;;;26.60;17.63;;;1.60;99.90;;;;;;5040854;28;20028;-38
2022/11/19 09:32:50;;;;;;;25.33;17.63;;;1.70;99.90;;;;;;5041599;28;20035;-41
2022/11/19 09:35:16;;;;;;;25.83;17.55;;;1.70;99.90;;;;;;5024240;28;20046;-38
2022/11/19 09:37:41;;;;;;;25.88;17.80;;;1.70;99.90;;;;;;5041783;28;20045;-39
2022/11/19 09:40:10;;;;;;;24.33;16.95;;;1.70;99.90;;;;;;5042209;28;20045;-40
2022/11/19 09:43:02;;;;;;;24.42;17.63;;;1.80;99.90;;;;;;5041193;28;20062;-40
2022/11/19 09:45:49;;;;;;;24.55;17.02;;;1.80;99.90;;;;;;5042351;28;20032;-39
2022/11/19 09:48:17;;;;;;;25.27;18.08;;;1.80;99.90;;;;;;5041237;28;20025;-40
2022/11/19 09:51:09;;;;;;;26.27;17.77;;;1.90;99.90;;;;;;5041976;28;20049;-39
2022/11/19 09:53:47;;;;;;;22.77;16.80;;;1.90;99.90;;;;;;5031083;28;20065;-40
2022/11/19 09:56:20;;;;;;;23.88;16.58;;;2.00;99.90;;;;;;5042915;28;20028;-40
2022/11/19 09:58:46;;;;;;;25.60;16.88;;;2.00;99.90;;;;;;5034290;28;20029;-40
2022/11/19 10:01:14;;;;;;;22.75;16.17;;;2.10;99.90;;;;;;5046105;28;20126;-41
2022/11/19 10:03:49;;;;;;;23.63;16.98;;;2.10;99.90;;;;;;5044715;28;20021;-41
2022/11/19 10:06:24;;;;;;;22.23;16.15;;;2.10;99.90;;;;;;5045159;28;20031;-38
2022/11/19 10:09:14;;;;;;;23.45;16.27;;;2.10;99.90;;;;;;5045046;28;20151;-38
2022/11/19 10:11:53;;;;;;;23.73;15.85;;;2.20;99.90;;;;;;5044033;28;20060;-39
2022/11/19 10:14:43;;;;;;;23.05;16.25;;;2.20;99.90;;;;;;5034682;28;20044;-40
2022/11/19 10:17:27;;;;;;;22.88;16.30;;;2.20;99.90;;;;;;5044420;28;20468;-39
2022/11/19 10:20:12;;;;;;;21.88;15.82;;;2.20;99.90;;;;;;5044693;28;20139;-40
2022/11/19 10:22:38;;;;;;;21.38;15.13;;;2.20;99.90;;;;;;5043287;28;20202;-40
2022/11/19 10:25:12;;;;;;;21.90;15.00;;;2.20;99.90;;;;;;5043532;28;20127;-37
2022/11/19 10:27:56;;;;;;;22.15;15.18;;;2.20;99.90;;;;;;5044542;28;20060;-34
2022/11/19 10:30:24;;;;;;;21.10;14.50;;;2.30;99.90;;;;;;5044627;28;20025;-38
2022/11/19 10:32:58;;;;;;;21.38;14.32;;;2.30;99.90;;;;;;5043393;28;20803;-39
2022/11/19 10:35:29;;;;;;;19.90;14.68;;;2.30;99.90;;;;;;5043724;28;20068;-40
2022/11/19 10:37:58;;;;;;;19.23;14.50;;;2.30;99.90;;;;;;5043622;28;20128;-40
2022/11/19 10:40:28;;;;;;;21.40;14.43;;;2.40;99.90;;;;;;5043238;28;20025;-39
2022/11/19 10:43:11;;;;;;;20.38;14.52;;;2.40;99.90;;;;;;5043766;28;20028;-39
2022/11/19 10:45:37;;;;;;;17.45;13.18;;;2.40;99.90;;;;;;5043952;28;20759;-40
2022/11/19 10:48:17;;;;;;;18.92;13.57;;;2.50;99.90;;;;;;5044589;28;20033;-40
2022/11/19 10:50:43;;;;;;;19.42;14.02;;;2.50;99.90;;;;;;5043968;28;20100;-40
2022/11/19 10:53:30;;;;;;;19.48;13.82;;;2.60;99.90;;;;;;5041851;28;20031;-40
2022/11/19 10:56:00;;;;;;;21.15;13.35;;;2.60;99.90;;;;;;5035531;28;20128;-41
2022/11/19 10:58:31;;;;;;;22.92;15.73;;;2.60;99.90;;;;;;5043839;28;20564;-41
2022/11/19 11:00:59;;;;;;;23.40;15.48;;;2.70;99.90;;;;;;5044088;28;20028;-40
2022/11/19 11:03:34;;;;;;;20.33;14.98;;;2.70;99.90;;;;;;5044550;28;20020;-39
2022/11/19 11:06:04;;;;;;;21.88;14.75;;;2.70;99.90;;;;;;5033559;28;20032;-40
2022/11/19 11:08:30;;;;;;;18.73;13.98;;;2.70;99.90;;;;;;5041857;28;20495;-37
2022/11/19 11:10:56;;;;;;;19.05;13.57;;;2.70;99.90;;;;;;5043106;28;20025;-39
2022/11/19 11:16:45;;;;;;;18.77;13.57;;;2.80;99.90;;;;;;5032680;28;20044;-39
2022/11/19 11:19:18;;;;;;;17.60;12.98;;;2.80;99.90;;;;;;5043910;28;20037;-41
2022/11/19 11:21:44;;;;;;;17.20;12.98;;;2.90;99.90;;;;;;5043120;28;20033;-39
2022/11/19 11:24:11;;;;;;;17.17;12.60;;;2.80;99.90;;;;;;5043382;28;20095;-41
2022/11/19 11:26:39;;;;;;;18.42;13.38;;;2.90;99.90;;;;;;5042987;28;20549;-41
2022/11/19 11:29:07;;;;;;;18.35;13.70;;;2.90;99.90;;;;;;5043485;28;20032;-39
2022/11/19 11:31:46;;;;;;;17.42;13.10;;;2.90;99.90;;;;;;5043898;28;20052;-40
2022/11/19 11:34:41;;;;;;;16.58;12.75;;;2.90;99.90;;;;;;5043888;28;20044;-40
2022/11/19 11:37:09;;;;;;;16.63;12.77;;;3.00;99.90;;;;;;5032093;28;20091;-39
2022/11/19 11:39:38;;;;;;;16.17;12.48;;;3.00;99.90;;;;;;5043203;28;20469;-40
2022/11/19 11:42:10;;;;;;;16.88;12.50;;;3.00;99.90;;;;;;5043524;28;20047;-38
2022/11/19 11:44:46;;;;;;;17.20;12.45;;;3.00;99.90;;;;;;5042914;28;20025;-39
2022/11/19 11:47:13;;;;;;;14.60;11.57;;;3.10;99.90;;;;;;5043328;28;20051;-41
2022/11/19 11:49:42;;;;;;;15.18;11.55;;;3.10;99.90;;;;;;5042319;28;20147;-39
2022/11/19 11:52:08;;;;;;;15.82;11.40;;;3.10;99.90;;;;;;5040096;28;20339;-41
2022/11/19 11:54:37;;;;;;;16.05;12.07;;;3.20;99.90;;;;;;5042844;28;20484;-40
2022/11/19 11:57:18;;;;;;;15.90;11.68;;;3.20;99.90;;;;;;5042273;28;20076;-40
2022/11/19 11:59:44;;;;;;;14.30;11.55;;;3.20;99.90;;;;;;5042818;28;20507;-40
2022/11/19 12:02:20;;;;;;;14.05;10.85;;;3.30;99.90;;;;;;5042466;28;20030;-39
2022/11/19 12:04:46;;;;;;;15.25;10.88;;;3.30;99.90;;;;;;5043382;28;20029;-38
2022/11/19 12:07:38;;;;;;;17.60;13.10;;;3.20;99.90;;;;;;5042649;28;20044;-38
2022/11/19 12:10:17;;;;;;;15.25;11.23;;;3.20;99.90;;;;;;5042936;28;20029;-39
2022/11/19 12:12:53;;;;;;;15.23;10.88;;;3.20;99.90;;;;;;5041858;28;20021;-38
2022/11/19 12:15:53;;;;;;;14.88;10.57;;;3.20;99.90;;;;;;5042495;28;20075;-40
2022/11/19 12:19:07;;;;;;;15.07;11.32;;;3.20;99.90;;;;;;5036560;28;20045;-37
2022/11/19 12:21:55;;;;;;;15.07;11.38;;;3.30;99.90;;;;;;5039551;28;20845;-41
2022/11/19 12:24:36;;;;;;;14.32;10.93;;;3.30;99.90;;;;;;5042323;28;20112;-35
2022/11/19 12:27:09;;;;;;;14.13;10.93;;;3.30;99.90;;;;;;5042342;28;20559;-40
2022/11/19 12:29:54;;;;;;;13.77;10.57;;;3.40;99.90;;;;;;5042314;28;20842;-40
2022/11/19 12:32:50;;;;;;;13.40;10.40;;;3.40;99.90;;;;;;5041089;28;20040;-40
2022/11/19 12:35:45;;;;;;;14.57;10.77;;;3.50;99.90;;;;;;5022085;28;20071;-39
2022/11/19 12:38:19;;;;;;;13.13;10.20;;;3.60;99.90;;;;;;5040106;28;20041;-39
2022/11/19 12:40:51;;;;;;;13.10;9.80;;;3.60;99.90;;;;;;5042185;28;20025;-41
2022/11/19 12:43:36;;;;;;;12.23;9.45;;;3.60;99.90;;;;;;5042360;28;20028;-41
2022/11/19 12:46:19;;;;;;;13.77;9.32;;;3.70;99.90;;;;;;5042733;28;20112;-41
2022/11/19 12:49:17;;;;;;;13.07;9.52;;;3.70;99.90;;;;;;5042245;28;20477;-40
2022/11/19 12:51:52;;;;;;;12.52;9.20;;;3.70;99.90;;;;;;5041574;28;20094;-39
2022/11/19 12:54:23;;;;;;;12.25;9.30;;;3.70;99.90;;;;;;5039219;28;20025;-40
2022/11/19 12:57:15;;;;;;;13.07;10.00;;;3.70;99.90;;;;;;5041737;28;20040;-38
2022/11/19 12:59:54;;;;;;;12.43;9.23;;;3.80;99.90;;;;;;5040389;28;20033;-39
2022/11/19 13:02:28;;;;;;;11.07;8.65;;;3.80;99.90;;;;;;5041459;28;20025;-38
2022/11/19 13:05:00;;;;;;;12.27;8.25;;;3.90;99.90;;;;;;5042597;28;20115;-41
2022/11/19 13:07:34;;;;;;;11.20;8.95;;;3.90;99.90;;;;;;5042041;28;20029;-36
2022/11/19 13:10:12;;;;;;;11.52;8.63;;;3.90;99.90;;;;;;5042595;28;20036;-40
2022/11/19 13:12:46;;;;;;;11.25;8.85;;;3.90;99.90;;;;;;5042489;28;20025;-40
2022/11/19 13:15:47;;;;;;;10.95;8.63;;;3.90;99.90;;;;;;5041691;28;20033;-38
2022/11/19 13:18:16;;;;;;;10.30;8.35;;;3.90;99.90;;;;;;5029893;28;20121;-40
2022/11/19 13:20:48;;;;;;;10.63;8.32;;;4.00;99.90;;;;;;5041144;28;20099;-37
2022/11/19 13:23:25;;;;;;;10.20;7.10;;;4.00;99.90;;;;;;5041461;28;20031;-38